createdAt,value
2019-05-30T00:01:51.744Z,5.30
2019-05-30T00:04:24.732Z,5.47
2019-05-30T00:06:58.666Z,5.90
2019-05-30T00:09:32.502Z,6.20
2019-05-30T00:12:06.217Z,5.77
2019-05-30T00:14:40.829Z,5.03
2019-05-30T00:17:14.678Z,4.63
2019-05-30T00:19:48.497Z,4.03
2019-05-30T00:22:21.835Z,4.27
2019-05-30T00:24:55.939Z,4.20
2019-05-30T00:27:29.343Z,3.57
2019-05-30T00:30:03.572Z,2.90
2019-05-30T00:32:36.700Z,2.90
2019-05-30T00:35:10.611Z,3.50
2019-05-30T00:37:44.396Z,2.57
2019-05-30T00:40:17.940Z,5.63
2019-05-30T00:42:50.962Z,6.73
2019-05-30T00:45:25.336Z,8.00
2019-05-30T00:48:00.111Z,6.90
2019-05-30T00:50:34.090Z,6.23
2019-05-30T00:53:07.396Z,6.43
2019-05-30T00:55:40.537Z,7.90
2019-05-30T00:58:13.861Z,7.20
2019-05-30T01:00:47.372Z,7.70
2019-05-30T01:03:20.785Z,9.03
2019-05-30T01:05:53.979Z,7.97
2019-05-30T01:08:26.979Z,8.47
2019-05-30T01:11:01.665Z,7.57
2019-05-30T01:13:34.652Z,6.17
2019-05-30T01:16:07.716Z,6.53
2019-05-30T01:18:40.926Z,7.00
2019-05-30T01:21:14.142Z,8.47
2019-05-30T01:23:47.350Z,6.27
2019-05-30T01:26:21.166Z,6.33
2019-05-30T01:29:01.507Z,6.70
2019-05-30T01:31:34.710Z,7.13
2019-05-30T01:34:08.165Z,7.97
2019-05-30T01:36:41.524Z,7.70
2019-05-30T01:39:14.855Z,7.93
2019-05-30T01:41:48.427Z,7.70
2019-05-30T01:44:22.405Z,7.80
2019-05-30T01:46:55.842Z,7.83
2019-05-30T01:49:30.107Z,7.67
2019-05-30T01:52:04.464Z,7.07
2019-05-30T01:54:37.787Z,7.50
2019-05-30T01:57:11.037Z,7.73
2019-05-30T01:59:44.859Z,7.83
2019-05-30T02:02:18.611Z,8.40
2019-05-30T02:04:51.390Z,7.97
2019-05-30T02:07:24.637Z,8.00
2019-05-30T02:09:59.071Z,8.60
2019-05-30T02:12:32.587Z,8.00
2019-05-30T02:15:07.657Z,8.63
2019-05-30T02:17:41.255Z,9.60
2019-05-30T02:20:14.994Z,9.30
2019-05-30T02:22:48.112Z,8.60
2019-05-30T02:25:21.515Z,8.83
2019-05-30T02:27:54.837Z,9.20
2019-05-30T02:30:28.574Z,9.27
2019-05-30T02:33:02.937Z,8.97
2019-05-30T02:35:38.467Z,9.00
2019-05-30T02:38:11.826Z,8.30
2019-05-30T02:40:45.437Z,7.17
2019-05-30T02:43:20.282Z,7.33
2019-05-30T02:45:53.863Z,6.93
2019-05-30T02:48:28.070Z,7.37
2019-05-30T02:51:01.341Z,6.47
2019-05-30T02:53:35.060Z,6.40
2019-05-30T02:56:10.254Z,6.53
2019-05-30T02:58:44.929Z,6.10
2019-05-30T03:01:18.971Z,6.60
2019-05-30T03:03:52.616Z,6.00
2019-05-30T03:06:29.672Z,6.07
2019-05-30T03:09:06.821Z,5.90
2019-05-30T03:11:41.168Z,5.80
2019-05-30T03:14:19.568Z,5.53
2019-05-30T03:16:51.030Z,6.17
2019-05-30T03:19:24.317Z,5.20
2019-05-30T03:21:57.686Z,5.70
2019-05-30T03:24:31.185Z,5.53
2019-05-30T03:27:04.974Z,5.90
2019-05-30T03:29:39.212Z,5.70
2019-05-30T03:32:51.544Z,5.33
2019-05-30T03:34:47.695Z,5.20
2019-05-30T03:37:28.729Z,5.40
2019-05-30T03:39:56.863Z,5.70
2019-05-30T03:42:30.791Z,6.33
2019-05-30T03:45:04.814Z,5.80
2019-05-30T03:47:41.902Z,5.43
2019-05-30T03:50:18.008Z,5.50
2019-05-30T03:52:51.820Z,4.50
2019-05-30T03:55:25.669Z,3.77
2019-05-30T03:58:12.248Z,3.20
2019-05-30T04:00:58.518Z,3.67
2019-05-30T04:03:49.062Z,2.77
2019-05-30T04:06:31.551Z,2.93
2019-05-30T04:09:12.372Z,2.43
2019-05-30T04:11:57.449Z,2.37
2019-05-30T04:14:33.154Z,2.30
2019-05-30T04:17:08.300Z,2.50
2019-05-30T04:19:41.601Z,2.10
2019-05-30T04:22:15.521Z,2.30
2019-05-30T04:24:48.721Z,2.40
2019-05-30T04:27:22.107Z,2.90
2019-05-30T04:29:59.372Z,2.90
2019-05-30T04:32:32.965Z,2.77
2019-05-30T04:35:05.996Z,2.90
2019-05-30T04:37:39.328Z,2.53
2019-05-30T04:40:13.334Z,2.83
2019-05-30T04:42:48.295Z,3.07
2019-05-30T04:45:21.296Z,2.67
2019-05-30T04:47:55.073Z,2.90
2019-05-30T04:50:28.474Z,2.87
2019-05-30T04:53:02.337Z,2.67
2019-05-30T04:55:35.676Z,2.90
2019-05-30T04:58:11.556Z,2.70
2019-05-30T05:00:46.092Z,2.40
2019-05-30T05:03:42.902Z,2.53
2019-05-30T05:05:54.726Z,2.80
2019-05-30T05:08:28.516Z,2.80
2019-05-30T05:11:03.588Z,2.40
2019-05-30T05:13:37.254Z,2.60
2019-05-30T05:16:23.121Z,2.87
2019-05-30T05:18:45.671Z,3.47
2019-05-30T05:21:19.017Z,3.90
2019-05-30T05:23:52.158Z,6.00
2019-05-30T05:26:25.728Z,6.00
2019-05-30T05:28:59.299Z,6.00
2019-05-30T05:31:32.945Z,7.83
2019-05-30T05:34:07.470Z,7.43
2019-05-30T05:36:41.544Z,8.37
2019-05-30T05:39:16.131Z,8.50
2019-05-30T05:41:49.381Z,9.47
2019-05-30T05:44:22.739Z,9.97
2019-05-30T05:46:56.619Z,9.03
2019-05-30T05:49:29.830Z,8.73
2019-05-30T05:52:03.557Z,8.20
2019-05-30T05:54:36.938Z,8.00
2019-05-30T05:57:10.447Z,8.30
2019-05-30T05:59:46.481Z,7.70
2019-05-30T06:02:21.124Z,8.03
2019-05-30T06:04:54.970Z,8.53
2019-05-30T06:07:28.603Z,7.90
2019-05-30T06:10:02.089Z,7.40
2019-05-30T06:12:35.852Z,7.43
2019-05-30T06:15:08.981Z,7.67
2019-05-30T06:17:42.410Z,7.73
2019-05-30T06:20:17.347Z,7.10
2019-05-30T06:22:50.924Z,7.50
2019-05-30T06:25:30.441Z,6.27
2019-05-30T06:28:00.986Z,7.03
2019-05-30T06:30:35.121Z,6.47
2019-05-30T06:33:08.725Z,7.57
2019-05-30T06:35:43.053Z,6.80
2019-05-30T06:38:17.291Z,6.73
2019-05-30T06:40:50.997Z,6.67
2019-05-30T06:43:24.440Z,7.40
2019-05-30T06:45:58.034Z,6.80
2019-05-30T06:48:31.411Z,6.97
2019-05-30T06:51:05.085Z,5.90
2019-05-30T06:53:37.986Z,6.63
2019-05-30T06:56:11.195Z,6.03
2019-05-30T06:58:48.698Z,6.20
2019-05-30T07:01:18.597Z,6.50
2019-05-30T07:03:51.798Z,5.43
2019-05-30T07:06:25.391Z,5.43
2019-05-30T07:08:58.578Z,5.50
2019-05-30T07:11:31.513Z,4.70
2019-05-30T07:14:04.266Z,4.13
2019-05-30T07:16:39.752Z,3.93
2019-05-30T07:19:12.959Z,3.80
2019-05-30T07:21:46.182Z,4.43
2019-05-30T07:24:19.707Z,3.53
2019-05-30T07:26:52.862Z,3.27
2019-05-30T07:29:27.876Z,3.20
2019-05-30T07:32:01.091Z,2.57
2019-05-30T07:34:35.205Z,2.20
2019-05-30T07:37:08.799Z,2.33
2019-05-30T07:39:43.451Z,2.20
2019-05-30T07:42:16.769Z,1.80
2019-05-30T07:44:49.790Z,1.70
2019-05-30T07:47:22.986Z,1.63
2019-05-30T07:49:56.087Z,1.80
2019-05-30T07:52:30.545Z,1.70
2019-05-30T07:55:04.210Z,1.90
2019-05-30T07:57:40.757Z,1.40
2019-05-30T08:00:14.492Z,1.80
2019-05-30T08:02:47.879Z,1.50
2019-05-30T08:05:24.548Z,1.63
2019-05-30T08:07:56.606Z,2.63
2019-05-30T08:10:29.952Z,1.30
2019-05-30T08:13:03.248Z,1.60
2019-05-30T08:15:42.957Z,1.47
2019-05-30T08:18:14.634Z,1.33
2019-05-30T08:33:08.080Z,1.70
2019-05-30T08:35:49.773Z,1.70
2019-05-30T08:38:18.296Z,1.63
2019-05-30T08:40:52.886Z,1.67
2019-05-30T08:43:27.754Z,1.97
2019-05-30T08:46:02.052Z,1.90
2019-05-30T08:48:36.217Z,1.50
2019-05-30T08:51:09.697Z,1.40
2019-05-30T08:53:44.826Z,1.40
2019-05-30T08:56:19.902Z,1.10
2019-05-30T08:58:56.045Z,1.30
2019-05-30T09:01:28.959Z,1.43
2019-05-30T09:04:04.826Z,1.50
2019-05-30T09:06:40.047Z,1.60
2019-05-30T09:09:15.306Z,1.07
2019-05-30T09:11:50.228Z,1.20
2019-05-30T09:14:24.949Z,1.20
2019-05-30T09:16:59.440Z,1.33
2019-05-30T09:19:33.661Z,1.70
2019-05-30T09:22:08.213Z,1.37
2019-05-30T09:24:43.981Z,0.80
2019-05-30T09:27:18.765Z,0.80
2019-05-30T09:29:51.938Z,1.10
2019-05-30T09:32:26.839Z,1.10
2019-05-30T09:35:02.552Z,0.80
2019-05-30T09:37:35.549Z,0.90
2019-05-30T09:40:11.160Z,0.90
2019-05-30T09:42:46.883Z,1.00
2019-05-30T09:45:21.448Z,0.90
2019-05-30T09:47:55.822Z,1.00
2019-05-30T09:50:29.427Z,1.47
2019-05-30T09:53:02.704Z,0.70
2019-05-30T09:55:37.177Z,1.00
2019-05-30T09:58:10.500Z,0.77
2019-05-30T10:00:45.446Z,0.70
2019-05-30T10:03:20.185Z,0.90
2019-05-30T10:05:53.747Z,0.80
2019-05-30T10:08:27.444Z,0.60
2019-05-30T10:11:01.158Z,0.67
2019-05-30T10:13:34.405Z,0.50
2019-05-30T10:16:08.048Z,0.97
2019-05-30T10:18:41.882Z,1.10
2019-05-30T10:21:15.414Z,0.60
2019-05-30T10:23:49.397Z,0.60
2019-05-30T10:26:23.247Z,0.50
2019-05-30T10:28:57.411Z,0.70
2019-05-30T10:31:30.533Z,0.60
2019-05-30T10:34:03.746Z,0.60
2019-05-30T10:36:44.180Z,0.60
2019-05-30T10:39:12.457Z,0.80
2019-05-30T10:41:47.195Z,1.17
2019-05-30T10:48:24.478Z,0.60
2019-05-30T10:50:58.552Z,1.07
2019-05-30T10:53:31.975Z,0.60
2019-05-30T10:56:06.718Z,0.90
2019-05-30T10:58:39.848Z,1.30
2019-05-30T11:01:13.979Z,0.80
2019-05-30T11:03:50.378Z,0.80
2019-05-30T11:07:10.382Z,0.80
2019-05-30T11:09:40.362Z,1.60
2019-05-30T11:12:15.018Z,1.00
2019-05-30T11:14:48.612Z,0.90
2019-05-30T11:17:23.496Z,0.90
2019-05-30T11:19:57.995Z,0.70
2019-05-30T11:22:32.314Z,1.43
2019-05-30T11:25:05.826Z,1.07
2019-05-30T11:27:41.888Z,0.70
2019-05-30T11:30:17.513Z,0.90
2019-05-30T11:32:53.105Z,0.90
2019-05-30T11:35:28.629Z,0.70
2019-05-30T11:38:03.592Z,0.60
2019-05-30T11:40:39.085Z,0.70
2019-05-30T11:43:13.273Z,0.80
2019-05-30T11:45:49.642Z,0.70
2019-05-30T11:48:24.272Z,0.70
2019-05-30T11:50:58.178Z,0.70
2019-05-30T11:53:32.569Z,0.80
2019-05-30T11:56:10.026Z,0.63
2019-05-30T11:58:43.721Z,0.83
2019-05-30T12:01:18.206Z,1.00
2019-05-30T12:03:52.592Z,1.03
2019-05-30T12:06:26.928Z,1.07
2019-05-30T12:09:01.144Z,0.83
2019-05-30T12:11:34.792Z,1.97
2019-05-30T12:14:08.998Z,0.87
2019-05-30T12:16:42.144Z,1.10
2019-05-30T12:19:16.844Z,3.00
2019-05-30T12:21:51.481Z,0.80
2019-05-30T12:24:30.634Z,0.70
2019-05-30T12:27:04.868Z,0.80
2019-05-30T12:29:38.877Z,1.50
2019-05-30T12:32:13.772Z,0.93
2019-05-30T12:34:47.630Z,0.80
2019-05-30T12:37:23.592Z,0.70
2019-05-30T12:39:57.165Z,1.27
2019-05-30T12:42:32.383Z,0.70
2019-05-30T12:45:08.130Z,0.80
2019-05-30T12:47:41.775Z,0.50
2019-05-30T12:50:19.057Z,1.23
2019-05-30T12:52:53.465Z,1.17
2019-05-30T12:55:29.275Z,1.10
2019-05-30T12:58:04.046Z,1.67
2019-05-30T13:00:39.936Z,2.20
2019-05-30T13:03:14.350Z,1.70
2019-05-30T13:05:48.449Z,1.83
2019-05-30T13:08:22.978Z,1.43
2019-05-30T13:10:57.404Z,1.10
2019-05-30T13:13:32.510Z,1.07
2019-05-30T13:16:08.518Z,0.70
2019-05-30T13:18:43.929Z,0.70
2019-05-30T13:21:17.438Z,0.83
2019-05-30T13:23:52.038Z,0.60
2019-05-30T13:26:25.800Z,0.80
2019-05-30T13:29:00.352Z,0.90
2019-05-30T13:31:35.066Z,0.70
2019-05-30T13:34:09.996Z,0.80
2019-05-30T13:36:46.442Z,0.90
2019-05-30T13:39:21.730Z,0.70
2019-05-30T13:41:57.511Z,0.87
2019-05-30T13:44:32.503Z,1.03
2019-05-30T13:47:08.923Z,1.00
2019-05-30T13:49:44.229Z,0.80
2019-05-30T13:52:18.508Z,0.90
2019-05-30T13:54:52.286Z,0.97
2019-05-30T13:57:26.170Z,1.37
2019-05-30T14:00:01.873Z,0.60
2019-05-30T14:02:36.782Z,0.60
2019-05-30T14:05:12.083Z,2.07
2019-05-30T14:07:47.111Z,2.30
2019-05-30T14:10:23.676Z,2.27
2019-05-30T14:12:58.358Z,0.80
2019-05-30T14:15:34.720Z,0.80
2019-05-30T14:18:11.196Z,1.00
2019-05-30T14:20:46.185Z,0.70
2019-05-30T14:23:21.267Z,0.60
2019-05-30T14:25:55.587Z,0.60
2019-05-30T14:28:29.863Z,1.10
2019-05-30T14:31:05.077Z,0.80
2019-05-30T14:33:39.748Z,1.37
2019-05-30T14:36:14.859Z,1.00
2019-05-30T14:38:57.852Z,0.67
2019-05-30T14:41:24.895Z,0.60
2019-05-30T14:44:00.290Z,2.43
2019-05-30T14:46:35.624Z,1.27
2019-05-30T14:49:10.925Z,0.63
2019-05-30T14:51:45.299Z,0.93
2019-05-30T14:54:19.318Z,0.50
2019-05-30T14:56:53.733Z,0.70
2019-05-30T14:59:27.108Z,0.77
2019-05-30T15:02:01.238Z,0.97
2019-05-30T15:04:36.621Z,0.70
2019-05-30T15:07:11.450Z,0.70
2019-05-30T15:09:47.029Z,0.67
2019-05-30T15:12:23.043Z,0.60
2019-05-30T15:14:56.652Z,0.60
2019-05-30T15:17:31.845Z,0.70
2019-05-30T15:20:05.972Z,0.70
2019-05-30T15:22:41.173Z,1.00
2019-05-30T15:25:16.518Z,0.70
2019-05-30T15:27:52.200Z,0.60
2019-05-30T15:30:26.778Z,0.60
2019-05-30T15:33:01.306Z,0.70
2019-05-30T15:35:35.874Z,1.00
2019-05-30T15:38:15.000Z,0.70
2019-05-30T15:40:48.855Z,0.70
2019-05-30T15:43:24.406Z,0.57
2019-05-30T15:46:00.633Z,0.70
2019-05-30T15:48:35.678Z,0.67
2019-05-30T15:51:12.583Z,0.90
2019-05-30T15:53:49.278Z,0.60
2019-05-30T15:56:27.346Z,0.40
2019-05-30T15:59:04.178Z,0.50
2019-05-30T16:01:47.093Z,0.50
2019-05-30T16:04:22.056Z,0.60
2019-05-30T16:06:58.186Z,0.60
2019-05-30T16:09:46.235Z,0.73
2019-05-30T16:12:13.052Z,0.60
2019-05-30T16:14:47.682Z,0.60
2019-05-30T16:17:27.683Z,0.70
2019-05-30T16:20:06.529Z,1.17
2019-05-30T16:22:43.772Z,0.70
2019-05-30T16:25:17.907Z,0.73
2019-05-30T16:27:56.010Z,1.00
2019-05-30T16:30:37.062Z,1.43
2019-05-30T16:33:13.923Z,0.87
2019-05-30T16:35:48.830Z,1.10
2019-05-30T16:38:23.155Z,1.00
2019-05-30T16:40:57.598Z,1.03
2019-05-30T16:43:31.637Z,0.90
2019-05-30T16:46:05.347Z,0.90
2019-05-30T16:48:38.785Z,1.10
2019-05-30T16:51:12.963Z,3.13
2019-05-30T16:53:47.088Z,1.73
2019-05-30T16:56:21.707Z,1.50
2019-05-30T16:58:55.783Z,1.30
2019-05-30T17:01:31.296Z,1.37
2019-05-30T17:04:09.943Z,1.67
2019-05-30T17:06:44.463Z,1.60
2019-05-30T17:09:21.479Z,1.20
2019-05-30T17:11:55.170Z,1.17
2019-05-30T17:14:29.821Z,1.10
2019-05-30T17:17:06.982Z,1.10
2019-05-30T17:19:41.481Z,0.70
2019-05-30T17:22:16.822Z,1.00
2019-05-30T17:24:54.463Z,1.30
2019-05-30T17:27:47.819Z,1.07
2019-05-30T17:30:24.394Z,1.17
2019-05-30T17:33:03.560Z,0.97
2019-05-30T17:35:38.412Z,1.10
2019-05-30T17:38:15.838Z,1.30
2019-05-30T17:40:51.270Z,1.27
2019-05-30T17:43:27.163Z,1.30
2019-05-30T17:46:01.857Z,1.30
2019-05-30T17:48:37.345Z,1.10
2019-05-30T17:51:12.742Z,1.43
2019-05-30T17:53:47.414Z,1.73
2019-05-30T17:56:22.042Z,1.23
2019-05-30T17:58:56.366Z,1.80
2019-05-30T18:01:30.534Z,1.77
2019-05-30T18:04:04.283Z,3.50
2019-05-30T18:06:40.985Z,2.37
2019-05-30T18:09:14.886Z,2.33
2019-05-30T18:11:47.987Z,1.30
2019-05-30T18:14:23.022Z,1.37
2019-05-30T18:16:57.600Z,1.40
2019-05-30T18:19:31.708Z,2.23
2019-05-30T18:22:05.923Z,2.07
2019-05-30T18:24:39.429Z,1.70
2019-05-30T18:27:16.288Z,2.30
2019-05-30T18:29:50.893Z,1.63
2019-05-30T18:32:25.975Z,2.10
2019-05-30T18:35:00.041Z,2.70
2019-05-30T18:37:33.809Z,1.83
2019-05-30T18:40:08.564Z,2.00
2019-05-30T18:42:42.248Z,1.93
2019-05-30T18:45:15.836Z,1.30
2019-05-30T18:47:49.010Z,1.00
2019-05-30T18:50:23.201Z,1.00
2019-05-30T18:52:56.730Z,1.23
2019-05-30T18:55:30.731Z,1.47
2019-05-30T18:58:07.309Z,1.30
2019-05-30T19:00:40.737Z,1.03
2019-05-30T19:03:14.648Z,0.93
2019-05-30T19:05:48.624Z,1.33
2019-05-30T19:08:23.766Z,1.03
2019-05-30T19:11:01.284Z,1.50
2019-05-30T19:13:37.855Z,1.90
2019-05-30T19:16:12.423Z,1.73
2019-05-30T19:18:47.366Z,2.20
2019-05-30T19:21:22.343Z,1.63
2019-05-30T19:23:56.660Z,1.50
2019-05-30T19:26:30.469Z,1.10
2019-05-30T19:29:08.115Z,1.30
2019-05-30T19:31:42.122Z,1.50
2019-05-30T19:34:16.480Z,1.50
2019-05-30T19:36:51.116Z,2.20
2019-05-30T19:39:24.728Z,1.70
2019-05-30T19:41:58.753Z,2.17
2019-05-30T19:44:37.490Z,2.07
2019-05-30T19:47:10.554Z,1.57
2019-05-30T19:49:45.638Z,1.70
2019-05-30T19:52:23.171Z,2.30
2019-05-30T19:54:59.653Z,1.67
2019-05-30T19:57:35.687Z,1.83
2019-05-30T20:00:12.955Z,1.80
2019-05-30T20:02:49.172Z,1.40
2019-05-30T20:05:26.931Z,1.53
2019-05-30T20:08:05.267Z,1.57
2019-05-30T20:10:41.053Z,1.90
2019-05-30T20:13:16.241Z,1.73
2019-05-30T20:15:52.293Z,2.10
2019-05-30T20:18:26.792Z,1.60
2019-05-30T20:21:01.735Z,1.80
2019-05-30T20:23:48.466Z,2.20
2019-05-30T20:26:11.693Z,1.53
2019-05-30T20:28:46.418Z,2.13
2019-05-30T20:31:20.980Z,2.27
2019-05-30T20:33:57.168Z,1.60
2019-05-30T20:36:30.831Z,1.40
2019-05-30T20:39:08.661Z,1.77
2019-05-30T20:41:43.230Z,1.40
2019-05-30T20:44:18.600Z,2.70
2019-05-30T20:46:54.612Z,2.37
2019-05-30T20:49:28.531Z,2.60
2019-05-30T20:52:02.459Z,2.00
2019-05-30T20:54:41.459Z,1.87
2019-05-30T20:57:15.612Z,1.80
2019-05-30T20:59:49.270Z,1.47
2019-05-30T21:02:24.335Z,1.30
2019-05-30T21:04:59.144Z,1.40
2019-05-30T21:07:35.882Z,1.50
2019-05-30T21:10:10.021Z,1.40
2019-05-30T21:12:49.272Z,2.10
2019-05-30T21:15:22.933Z,1.97
2019-05-30T21:17:58.858Z,1.50
2019-05-30T21:20:35.837Z,2.07
2019-05-30T21:23:10.968Z,1.40
2019-05-30T21:25:47.098Z,1.50
2019-05-30T21:28:23.140Z,1.80
2019-05-30T21:31:00.395Z,1.80
2019-05-30T21:33:35.170Z,2.10
2019-05-30T21:36:10.766Z,1.80
2019-05-30T21:38:46.102Z,1.83
2019-05-30T21:41:22.246Z,1.70
2019-05-30T21:43:57.264Z,1.80
2019-05-30T21:46:32.631Z,2.30
2019-05-30T21:49:07.733Z,1.70
2019-05-30T21:51:43.162Z,1.50
2019-05-30T21:54:18.275Z,1.80
2019-05-30T21:56:54.649Z,1.83
2019-05-30T21:59:29.970Z,1.70
2019-05-30T22:02:04.708Z,1.70
2019-05-30T22:04:40.443Z,1.50
2019-05-30T22:07:15.270Z,1.40
2019-05-30T22:09:49.961Z,1.70
2019-05-30T22:12:23.963Z,1.37
2019-05-30T22:15:01.151Z,1.30
2019-05-30T22:17:36.680Z,2.60
2019-05-30T22:20:13.908Z,1.60
2019-05-30T22:22:48.490Z,1.53
2019-05-30T22:25:23.512Z,1.57
2019-05-30T22:27:57.548Z,1.47
2019-05-30T22:30:31.956Z,1.60
2019-05-30T22:33:06.078Z,1.23
2019-05-30T22:35:40.608Z,1.63
2019-05-30T22:38:14.472Z,1.60
2019-05-30T22:40:49.956Z,1.60
2019-05-30T22:43:25.557Z,1.40
2019-05-30T22:45:59.515Z,1.57
2019-05-30T22:48:32.868Z,1.60
2019-05-30T22:51:07.167Z,1.23
2019-05-30T22:53:40.914Z,1.53
2019-05-30T22:56:14.620Z,1.23
2019-05-30T22:58:50.185Z,1.20
2019-05-30T23:01:24.068Z,1.40
2019-05-30T23:03:58.273Z,1.43
2019-05-30T23:06:32.018Z,1.37
2019-05-30T23:09:06.943Z,1.60
2019-05-30T23:11:41.147Z,1.57
2019-05-30T23:14:17.606Z,1.50
2019-05-30T23:16:52.230Z,1.37
2019-05-30T23:19:26.014Z,1.70
2019-05-30T23:21:59.024Z,1.70
2019-05-30T23:24:32.302Z,1.60
2019-05-30T23:27:08.266Z,1.50
2019-05-30T23:29:40.373Z,1.50
2019-05-30T23:32:13.551Z,1.43
2019-05-30T23:34:48.140Z,1.47
2019-05-30T23:37:22.075Z,1.30
2019-05-30T23:39:55.423Z,1.47
2019-05-30T23:42:28.715Z,1.17
2019-05-30T23:45:02.255Z,1.30
2019-05-30T23:47:35.934Z,1.43
2019-05-30T23:50:08.978Z,1.40
2019-05-30T23:52:42.341Z,1.47
2019-05-30T23:55:16.336Z,1.37
2019-05-30T23:57:52.437Z,1.47
